Time;durP1;ratioP1;P1;durP2;ratioP2;P2;SDS_P1;SDS_P2;PMS_P1;PMS_P2;Temp;Humidity;BMP_temperature;BMP_pressure;BME280_temperature;BME280_humidity;BME280_pressure;Samples;Min_cycle;Max_cycle;Signal;HPM_P1;HPM_P2
2023/12/07 00:01:15;;;;;;;5.40;2.92;;;2.80;99.90;;;;;;5005302;28;20433;-74
2023/12/07 00:03:41;;;;;;;1.83;1.30;;;2.80;99.90;;;;;;5007009;28;20041;-74
2023/12/07 00:06:07;;;;;;;4.47;2.13;;;2.80;99.90;;;;;;5005143;28;20089;-74
2023/12/07 00:08:32;;;;;;;1.63;1.52;;;2.80;99.90;;;;;;5008074;28;20119;-74
2023/12/07 00:10:58;;;;;;;1.73;1.63;;;2.80;99.90;;;;;;5019505;28;20037;-74
2023/12/07 00:13:24;;;;;;;5.65;3.05;;;2.70;99.90;;;;;;5006704;28;20026;-74
2023/12/07 00:15:50;;;;;;;6.22;2.90;;;2.70;99.90;;;;;;5010505;28;20042;-74
2023/12/07 00:18:15;;;;;;;3.67;2.60;;;2.60;99.90;;;;;;5005905;28;20601;-74
2023/12/07 00:20:41;;;;;;;6.20;3.47;;;2.60;99.90;;;;;;5005716;28;20105;-74
2023/12/07 00:23:07;;;;;;;1.67;1.23;;;2.50;99.90;;;;;;5006225;28;20022;-74
2023/12/07 00:25:34;;;;;;;2.90;2.13;;;2.60;99.90;;;;;;5006258;28;20042;-74
2023/12/07 00:27:59;;;;;;;3.90;1.80;;;2.50;99.90;;;;;;5003543;28;20026;-73
2023/12/07 00:30:25;;;;;;;2.40;2.22;;;2.50;99.90;;;;;;5003809;28;20025;-74
2023/12/07 00:32:51;;;;;;;4.72;2.80;;;2.50;99.90;;;;;;5009922;28;20038;-73
2023/12/07 00:35:17;;;;;;;1.92;1.52;;;2.50;99.90;;;;;;5002579;28;20034;-73
2023/12/07 00:37:43;;;;;;;4.13;1.73;;;2.50;99.90;;;;;;5002720;28;20034;-73
2023/12/07 00:40:09;;;;;;;2.20;1.95;;;2.50;99.90;;;;;;5009779;28;20092;-74
2023/12/07 00:42:35;;;;;;;0.90;0.90;;;2.50;99.90;;;;;;5001032;28;20026;-74
2023/12/07 00:45:01;;;;;;;4.18;1.67;;;2.50;99.90;;;;;;5004826;28;20065;-73
2023/12/07 00:47:27;;;;;;;2.22;1.33;;;2.50;99.90;;;;;;5008467;28;20025;-74
2023/12/07 00:49:52;;;;;;;6.50;2.25;;;2.50;99.90;;;;;;5009206;28;20096;-75
2023/12/07 00:52:18;;;;;;;2.45;2.05;;;2.50;99.90;;;;;;5004907;28;20026;-74
2023/12/07 00:54:44;;;;;;;5.05;2.47;;;2.40;99.90;;;;;;5006488;28;20117;-74
2023/12/07 00:57:10;;;;;;;4.95;3.45;;;2.30;99.90;;;;;;5007964;28;20064;-74
2023/12/07 00:59:36;;;;;;;4.05;1.85;;;2.20;99.90;;;;;;5004720;28;20034;-74
2023/12/07 01:02:06;;;;;;;3.95;2.28;;;2.10;99.90;;;;;;4999634;28;20037;-73
2023/12/07 01:04:33;;;;;;;1.92;1.75;;;2.00;99.90;;;;;;4993736;28;20029;-74
2023/12/07 01:06:59;;;;;;;2.22;2.03;;;2.00;99.90;;;;;;5004141;28;20029;-74
2023/12/07 01:09:25;;;;;;;2.58;1.67;;;1.90;99.90;;;;;;5008310;28;20034;-73
2023/12/07 01:11:52;;;;;;;4.78;2.78;;;1.80;99.90;;;;;;4994286;28;20026;-73
2023/12/07 01:14:18;;;;;;;2.13;1.95;;;1.80;99.90;;;;;;5006021;28;20029;-73
2023/12/07 01:16:45;;;;;;;2.25;2.05;;;1.80;99.90;;;;;;5018012;28;20033;-74
2023/12/07 01:19:14;;;;;;;4.95;2.65;;;1.80;99.90;;;;;;5006105;28;20512;-74
2023/12/07 01:21:43;;;;;;;2.03;1.67;;;1.80;99.90;;;;;;5021092;28;20026;-73
2023/12/07 01:24:09;;;;;;;2.47;2.22;;;1.70;99.90;;;;;;5008046;28;20495;-74
2023/12/07 01:26:35;;;;;;;2.20;2.00;;;1.70;99.90;;;;;;5003304;28;20050;-73
2023/12/07 01:29:02;;;;;;;4.82;2.17;;;1.60;99.90;;;;;;5004921;28;20037;-74
2023/12/07 01:31:29;;;;;;;4.28;2.42;;;1.60;99.90;;;;;;5010350;28;20029;-74
2023/12/07 01:33:54;;;;;;;3.97;2.00;;;1.60;99.90;;;;;;5002854;28;20164;-75
2023/12/07 01:36:20;;;;;;;3.95;2.58;;;1.50;99.90;;;;;;5006357;28;20512;-73
2023/12/07 01:38:46;;;;;;;3.83;2.47;;;1.60;99.90;;;;;;5005068;28;20026;-74
2023/12/07 01:41:12;;;;;;;3.63;3.30;;;1.60;99.90;;;;;;5009601;28;20049;-74
2023/12/07 01:43:44;;;;;;;4.53;1.85;;;1.60;99.90;;;;;;5016127;28;20479;-73
2023/12/07 01:46:11;;;;;;;4.80;3.85;;;1.60;99.90;;;;;;5001599;28;20018;-74
2023/12/07 01:48:36;;;;;;;3.95;2.00;;;1.60;99.90;;;;;;4993806;28;20033;-74
2023/12/07 01:51:03;;;;;;;4.68;3.70;;;1.40;99.90;;;;;;5003279;28;20176;-74
2023/12/07 01:53:29;;;;;;;1.05;1.02;;;1.40;99.90;;;;;;5006092;28;20113;-73
2023/12/07 01:55:56;;;;;;;3.70;2.88;;;1.40;99.90;;;;;;5007632;28;20144;-74
2023/12/07 01:58:22;;;;;;;2.90;2.40;;;1.40;99.90;;;;;;5003505;28;20026;-74
2023/12/07 02:00:49;;;;;;;2.05;1.90;;;1.40;99.90;;;;;;5005279;28;20056;-74
2023/12/07 02:03:16;;;;;;;4.35;1.40;;;1.40;99.90;;;;;;5004189;28;20792;-74
2023/12/07 02:05:47;;;;;;;1.70;1.52;;;1.40;99.90;;;;;;5005749;28;21419;-74
2023/12/07 02:08:13;;;;;;;3.22;2.30;;;1.40;99.90;;;;;;5014622;28;20022;-74
2023/12/07 02:10:39;;;;;;;5.35;2.80;;;1.50;99.90;;;;;;5007715;28;20031;-75
2023/12/07 02:13:05;;;;;;;2.85;2.20;;;1.50;99.90;;;;;;5003472;28;20026;-73
2023/12/07 02:15:31;;;;;;;4.55;3.35;;;1.50;99.90;;;;;;5009781;28;20052;-74
2023/12/07 02:18:14;;;;;;;8.50;2.13;;;1.50;99.90;;;;;;5003509;28;20495;-73
2023/12/07 02:20:55;;;;;;;4.45;3.10;;;1.50;99.90;;;;;;5025073;28;20518;-73
2023/12/07 02:23:29;;;;;;;3.42;3.13;;;1.50;99.90;;;;;;5003871;28;20045;-75
2023/12/07 02:26:02;;;;;;;3.95;2.78;;;1.50;99.90;;;;;;5017509;28;20521;-74
2023/12/07 02:28:28;;;;;;;2.33;1.88;;;1.40;99.90;;;;;;5016693;28;20609;-74
2023/12/07 02:30:53;;;;;;;3.78;2.33;;;1.40;99.90;;;;;;5000698;28;20105;-74
2023/12/07 02:33:19;;;;;;;2.95;2.58;;;1.30;99.90;;;;;;5001635;28;20040;-75
2023/12/07 02:35:45;;;;;;;3.65;3.25;;;1.30;99.90;;;;;;5005073;28;20030;-74
2023/12/07 02:38:11;;;;;;;2.22;2.03;;;1.20;99.90;;;;;;5002725;28;20041;-74
2023/12/07 02:40:38;;;;;;;16.77;5.65;;;1.20;99.90;;;;;;5006438;28;20041;-73
2023/12/07 02:43:04;;;;;;;1.70;1.60;;;1.20;99.90;;;;;;5004106;28;20029;-74
2023/12/07 02:45:31;;;;;;;3.67;2.10;;;1.10;99.90;;;;;;5006504;28;20108;-74
2023/12/07 02:47:58;;;;;;;2.83;2.35;;;1.10;99.90;;;;;;5000943;28;20018;-73
2023/12/07 02:50:24;;;;;;;2.30;2.10;;;1.10;99.90;;;;;;5003385;28;20044;-74
2023/12/07 02:52:50;;;;;;;3.25;2.03;;;1.10;99.90;;;;;;4999220;28;20490;-73
2023/12/07 02:55:16;;;;;;;2.80;2.03;;;1.10;99.90;;;;;;5002883;28;20029;-74
2023/12/07 02:57:41;;;;;;;6.30;2.88;;;1.10;99.90;;;;;;5006028;28;20033;-75
2023/12/07 03:00:08;;;;;;;11.98;3.58;;;0.90;99.90;;;;;;5009546;28;20084;-74
2023/12/07 03:02:41;;;;;;;2.67;2.45;;;0.80;99.90;;;;;;5001918;28;20466;-74
2023/12/07 03:05:07;;;;;;;4.20;3.70;;;0.80;99.90;;;;;;5000355;28;20032;-74
2023/12/07 03:07:34;;;;;;;3.75;2.90;;;0.80;99.90;;;;;;5003930;28;20073;-73
2023/12/07 03:10:00;;;;;;;1.33;1.23;;;0.90;99.90;;;;;;5005034;28;20040;-74
2023/12/07 03:12:26;;;;;;;3.70;3.42;;;1.00;99.90;;;;;;4999980;28;20038;-74
2023/12/07 03:14:51;;;;;;;3.63;3.33;;;1.10;99.90;;;;;;5007696;28;20073;-73
2023/12/07 03:17:17;;;;;;;3.15;2.85;;;1.10;99.90;;;;;;5003803;28;20022;-74
2023/12/07 03:19:43;;;;;;;4.07;1.65;;;1.10;99.90;;;;;;5017144;28;20042;-73
2023/12/07 03:22:09;;;;;;;2.38;2.17;;;1.30;99.90;;;;;;5004476;28;20098;-73
2023/12/07 03:24:36;;;;;;;3.58;3.22;;;1.20;99.90;;;;;;5023050;28;20029;-74
2023/12/07 03:27:02;;;;;;;2.83;2.15;;;1.20;99.90;;;;;;5010027;28;20048;-74
2023/12/07 03:29:28;;;;;;;4.05;3.53;;;1.20;99.90;;;;;;5003310;28;20057;-74
2023/12/07 03:31:54;;;;;;;10.30;3.20;;;1.20;99.90;;;;;;5005674;28;20058;-73
2023/12/07 03:34:20;;;;;;;4.10;2.33;;;1.10;99.90;;;;;;5006719;28;20030;-74
2023/12/07 03:36:46;;;;;;;4.40;2.35;;;1.00;99.90;;;;;;5002639;28;20092;-73
2023/12/07 03:39:15;;;;;;;2.40;2.20;;;1.00;99.90;;;;;;5001611;28;20104;-74
2023/12/07 03:41:41;;;;;;;4.95;3.30;;;1.00;99.90;;;;;;5026470;28;20061;-74
2023/12/07 03:44:07;;;;;;;1.67;1.58;;;1.00;99.90;;;;;;4990318;28;20463;-74
2023/12/07 03:46:33;;;;;;;3.75;2.25;;;0.90;99.90;;;;;;5006853;28;20030;-74
2023/12/07 03:48:59;;;;;;;5.03;2.17;;;0.90;99.90;;;;;;5005184;28;20037;-73
2023/12/07 03:51:27;;;;;;;1.92;1.80;;;0.90;99.90;;;;;;5008726;28;20088;-74
2023/12/07 03:53:54;;;;;;;3.08;2.78;;;0.90;99.90;;;;;;5023472;28;20391;-73
2023/12/07 03:56:29;;;;;;;10.77;3.85;;;0.90;99.90;;;;;;5006902;28;20037;-73
2023/12/07 03:58:56;;;;;;;4.85;3.63;;;0.90;99.90;;;;;;5023363;28;20033;-74
2023/12/07 04:01:27;;;;;;;3.10;2.60;;;0.90;99.90;;;;;;4990306;28;20049;-74
2023/12/07 04:03:55;;;;;;;6.20;2.50;;;0.90;99.90;;;;;;5006248;28;20625;-74
2023/12/07 04:06:24;;;;;;;9.77;4.38;;;0.90;99.90;;;;;;5005600;28;20031;-73
2023/12/07 04:08:51;;;;;;;5.88;3.00;;;0.80;99.90;;;;;;5004512;28;20433;-73
2023/12/07 04:11:16;;;;;;;7.95;4.50;;;0.80;99.90;;;;;;4993387;28;20037;-73
2023/12/07 04:13:43;;;;;;;3.38;2.60;;;0.80;99.90;;;;;;5005489;28;20018;-73
2023/12/07 04:16:10;;;;;;;5.07;2.75;;;0.80;99.90;;;;;;5004244;28;20029;-73
2023/12/07 04:18:36;;;;;;;2.13;1.90;;;0.80;99.90;;;;;;5023128;28;20085;-74
2023/12/07 04:21:03;;;;;;;5.63;2.80;;;0.80;99.90;;;;;;5006287;28;20100;-74
2023/12/07 04:23:28;;;;;;;2.15;1.95;;;0.60;99.90;;;;;;5010806;28;20116;-74
2023/12/07 04:25:54;;;;;;;3.90;3.30;;;0.40;99.90;;;;;;5005881;28;20101;-73
2023/12/07 04:28:20;;;;;;;2.25;1.90;;;0.40;99.90;;;;;;5004665;28;20099;-74
2023/12/07 04:30:46;;;;;;;3.83;2.50;;;0.40;99.90;;;;;;5022790;28;20482;-74
2023/12/07 04:33:12;;;;;;;4.90;3.17;;;0.40;99.90;;;;;;5011815;28;20084;-73
2023/12/07 04:35:37;;;;;;;1.88;1.77;;;0.50;99.90;;;;;;5005687;28;20030;-74
2023/12/07 04:38:03;;;;;;;2.85;2.58;;;0.50;99.90;;;;;;5005727;28;20030;-73
2023/12/07 04:40:29;;;;;;;0.98;0.95;;;0.50;99.90;;;;;;5007421;28;20033;-74
2023/12/07 04:42:55;;;;;;;2.38;2.10;;;0.30;99.90;;;;;;5005390;28;20337;-74
2023/12/07 04:45:20;;;;;;;17.20;3.45;;;-0.10;99.90;;;;;;5004999;28;20371;-73
2023/12/07 04:47:46;;;;;;;3.63;3.15;;;-0.10;99.90;;;;;;5022674;28;20022;-73
2023/12/07 04:50:12;;;;;;;2.80;1.55;;;0.00;99.90;;;;;;5002804;28;20023;-72
2023/12/07 04:52:39;;;;;;;2.58;2.35;;;-0.10;99.90;;;;;;5022240;28;20033;-74
2023/12/07 04:55:06;;;;;;;4.63;2.53;;;-0.10;99.90;;;;;;5009509;28;20113;-74
2023/12/07 04:57:34;;;;;;;3.72;1.38;;;0.00;99.90;;;;;;5002063;28;20026;-74
2023/12/07 05:00:00;;;;;;;1.58;1.42;;;0.10;99.90;;;;;;5006447;28;20449;-74
2023/12/07 05:02:27;;;;;;;4.45;3.47;;;0.20;99.90;;;;;;5004730;28;20035;-74
2023/12/07 05:04:53;;;;;;;2.05;1.88;;;0.40;99.90;;;;;;4996252;28;20450;-74
2023/12/07 05:07:20;;;;;;;2.28;1.30;;;0.50;99.90;;;;;;5002246;28;20027;-75
2023/12/07 05:09:46;;;;;;;2.45;1.38;;;0.50;99.90;;;;;;5008258;28;20483;-74
2023/12/07 05:12:11;;;;;;;2.22;1.45;;;0.50;99.90;;;;;;5009331;28;20037;-74
2023/12/07 05:14:37;;;;;;;2.50;2.30;;;0.50;99.90;;;;;;5015620;28;20033;-75
2023/12/07 05:17:05;;;;;;;2.72;2.53;;;0.60;99.90;;;;;;5015997;28;20034;-74
2023/12/07 05:19:30;;;;;;;1.15;0.95;;;0.60;99.90;;;;;;5012490;28;20030;-73
2023/12/07 05:21:56;;;;;;;3.10;2.50;;;0.70;99.90;;;;;;5013186;28;20033;-74
2023/12/07 05:24:22;;;;;;;1.80;1.65;;;0.80;99.90;;;;;;5023968;28;20021;-73
2023/12/07 05:26:48;;;;;;;3.60;2.67;;;0.80;99.90;;;;;;5013370;28;20066;-75
2023/12/07 05:29:15;;;;;;;3.33;2.53;;;0.70;99.90;;;;;;5013301;28;20030;-73
2023/12/07 05:31:41;;;;;;;2.72;2.35;;;0.80;99.90;;;;;;5029100;28;20041;-73
2023/12/07 05:34:10;;;;;;;1.83;1.55;;;0.90;99.90;;;;;;5028612;28;20046;-74
2023/12/07 05:36:36;;;;;;;4.03;2.75;;;0.90;99.90;;;;;;5013226;28;20117;-74
2023/12/07 05:39:02;;;;;;;1.83;1.73;;;0.90;99.90;;;;;;5010524;28;20133;-74
2023/12/07 05:41:28;;;;;;;2.63;1.25;;;0.90;99.90;;;;;;5007835;28;20040;-73
2023/12/07 05:43:54;;;;;;;5.10;2.33;;;1.10;99.90;;;;;;5016520;28;20033;-73
2023/12/07 05:46:20;;;;;;;4.28;2.83;;;1.20;99.90;;;;;;5015242;28;20026;-74
2023/12/07 05:48:46;;;;;;;7.32;2.70;;;1.40;99.90;;;;;;5017066;28;20037;-72
2023/12/07 05:51:14;;;;;;;7.25;3.97;;;1.20;99.90;;;;;;5030946;28;20117;-74
2023/12/07 05:53:41;;;;;;;8.55;4.85;;;1.00;99.90;;;;;;5013417;28;20121;-74
2023/12/07 05:56:07;;;;;;;5.78;3.60;;;1.00;99.90;;;;;;5010450;28;20037;-74
2023/12/07 05:58:33;;;;;;;4.15;3.22;;;0.90;99.90;;;;;;5011823;28;20120;-74
2023/12/07 06:01:01;;;;;;;4.53;4.03;;;0.90;99.90;;;;;;5011480;28;20102;-73
2023/12/07 06:03:28;;;;;;;7.05;3.65;;;0.90;99.90;;;;;;5010950;28;20021;-73
2023/12/07 06:05:54;;;;;;;4.70;2.03;;;0.90;99.90;;;;;;5012442;28;20115;-74
2023/12/07 06:08:20;;;;;;;4.35;3.30;;;0.90;99.90;;;;;;5012164;28;20709;-73
2023/12/07 06:10:45;;;;;;;2.97;2.22;;;0.90;99.90;;;;;;5017915;28;20577;-73
2023/12/07 06:13:13;;;;;;;4.68;2.10;;;0.90;99.90;;;;;;5012003;28;20401;-74
2023/12/07 06:15:39;;;;;;;5.13;2.35;;;0.90;99.90;;;;;;5019092;28;20099;-73
2023/12/07 06:18:05;;;;;;;6.43;3.03;;;0.90;99.90;;;;;;5010533;28;20037;-71
2023/12/07 06:20:32;;;;;;;6.20;2.95;;;0.80;99.90;;;;;;5009142;28;20025;-72
2023/12/07 06:22:58;;;;;;;1.98;1.88;;;0.80;99.90;;;;;;5007642;28;20097;-73
2023/12/07 06:25:24;;;;;;;5.80;2.05;;;0.80;99.90;;;;;;5007089;28;20060;-73
2023/12/07 06:27:50;;;;;;;1.80;1.70;;;0.70;99.90;;;;;;5026213;28;20056;-72
2023/12/07 06:30:16;;;;;;;4.45;2.47;;;0.70;99.90;;;;;;5008365;28;21159;-72
2023/12/07 06:32:42;;;;;;;6.55;3.38;;;0.70;99.90;;;;;;5009527;28;20088;-72
2023/12/07 06:35:16;;;;;;;14.13;3.33;;;0.60;99.90;;;;;;5008740;28;20433;-72
2023/12/07 06:37:41;;;;;;;3.40;3.13;;;0.60;99.90;;;;;;5011151;28;20073;-72
2023/12/07 06:40:10;;;;;;;4.05;3.67;;;0.60;99.90;;;;;;5008071;28;20061;-72
2023/12/07 06:42:36;;;;;;;5.55;3.42;;;0.60;99.90;;;;;;5009583;28;20045;-73
2023/12/07 06:45:02;;;;;;;3.63;2.25;;;0.60;99.90;;;;;;5009802;28;20080;-76
2023/12/07 06:47:28;;;;;;;2.05;1.92;;;0.50;99.90;;;;;;4992910;28;20026;-75
2023/12/07 06:49:55;;;;;;;4.53;4.18;;;0.60;99.90;;;;;;5005751;28;20030;-75
2023/12/07 06:52:21;;;;;;;1.77;1.67;;;0.60;99.90;;;;;;5007252;28;21034;-75
2023/12/07 06:54:47;;;;;;;3.80;2.67;;;0.60;99.90;;;;;;4992620;28;20061;-76
2023/12/07 06:57:13;;;;;;;4.10;3.70;;;0.60;99.90;;;;;;5005689;28;20026;-76
2023/12/07 06:59:40;;;;;;;2.17;1.77;;;0.60;99.90;;;;;;5008860;28;20026;-75
2023/12/07 07:02:06;;;;;;;2.90;2.65;;;0.60;99.90;;;;;;5006877;28;20038;-76
2023/12/07 07:04:32;;;;;;;4.25;3.20;;;0.70;99.90;;;;;;5013784;28;20056;-75
2023/12/07 07:06:57;;;;;;;3.30;2.88;;;0.70;99.90;;;;;;5009513;28;20040;-76
2023/12/07 07:09:24;;;;;;;6.45;3.13;;;0.70;99.90;;;;;;5013294;28;20037;-75
2023/12/07 07:11:51;;;;;;;3.45;3.08;;;0.60;99.90;;;;;;5012629;28;20045;-75
2023/12/07 07:14:17;;;;;;;3.13;2.33;;;0.60;99.90;;;;;;5013337;28;20030;-74
2023/12/07 07:16:43;;;;;;;4.00;3.60;;;0.60;99.90;;;;;;5007659;28;20065;-75
2023/12/07 07:19:09;;;;;;;6.72;4.03;;;0.60;99.90;;;;;;5004429;28;20029;-76
2023/12/07 07:21:35;;;;;;;5.05;4.07;;;0.50;99.90;;;;;;5002996;28;20092;-74
2023/12/07 07:24:00;;;;;;;5.47;1.50;;;0.50;99.90;;;;;;5013635;28;20083;-75
2023/12/07 07:26:26;;;;;;;2.40;2.20;;;0.50;99.90;;;;;;5011623;28;20431;-75
2023/12/07 07:28:55;;;;;;;2.45;2.25;;;0.50;99.90;;;;;;5008791;28;20114;-73
2023/12/07 07:31:21;;;;;;;2.90;2.03;;;0.50;99.90;;;;;;5013832;28;20037;-74
2023/12/07 07:33:47;;;;;;;4.32;3.97;;;0.50;99.90;;;;;;5013287;28;20042;-75
2023/12/07 07:36:17;;;;;;;4.00;3.60;;;0.50;99.90;;;;;;4996304;28;20026;-75
2023/12/07 07:38:43;;;;;;;4.40;3.72;;;0.60;99.90;;;;;;4995672;28;20064;-74
2023/12/07 07:41:11;;;;;;;5.05;3.45;;;0.60;99.90;;;;;;5011769;28;20030;-76
2023/12/07 07:43:37;;;;;;;4.00;3.60;;;0.60;99.90;;;;;;5007153;28;20506;-74
2023/12/07 07:46:04;;;;;;;2.63;2.35;;;0.60;99.90;;;;;;5009269;28;20112;-76
2023/12/07 07:48:30;;;;;;;2.85;1.95;;;0.70;99.90;;;;;;5011338;28;20025;-74
2023/12/07 07:50:56;;;;;;;3.35;2.45;;;0.80;99.90;;;;;;5005267;28;20507;-74
2023/12/07 07:53:22;;;;;;;5.45;4.15;;;0.80;99.90;;;;;;5013038;28;20072;-75
2023/12/07 07:55:48;;;;;;;4.07;2.75;;;0.80;99.90;;;;;;5028814;28;20641;-75
2023/12/07 07:58:13;;;;;;;11.32;4.13;;;0.90;99.90;;;;;;5004968;28;20050;-75
2023/12/07 08:00:39;;;;;;;7.90;2.28;;;0.90;99.90;;;;;;5006675;23;20050;-72
2023/12/07 08:03:05;;;;;;;7.18;2.15;;;0.90;99.90;;;;;;4992791;28;20033;-74
2023/12/07 08:05:31;;;;;;;7.50;3.67;;;0.70;99.90;;;;;;4985853;28;20116;-71
2023/12/07 08:07:57;;;;;;;4.95;2.70;;;0.60;99.90;;;;;;4992116;28;20031;-74
2023/12/07 08:10:22;;;;;;;3.72;3.17;;;0.50;99.90;;;;;;4970637;28;20034;-72
2023/12/07 08:12:48;;;;;;;6.25;3.45;;;0.40;99.90;;;;;;4970186;28;20042;-74
2023/12/07 08:15:14;;;;;;;2.58;2.10;;;0.50;99.90;;;;;;4959014;28;20481;-72
2023/12/07 08:17:41;;;;;;;9.88;3.65;;;0.60;99.90;;;;;;4968321;28;20042;-73
2023/12/07 08:20:10;;;;;;;5.63;4.90;;;0.70;99.90;;;;;;4967766;28;20031;-74
2023/12/07 08:22:37;;;;;;;5.75;4.43;;;0.80;99.90;;;;;;4960460;28;20692;-71
2023/12/07 08:25:05;;;;;;;4.65;3.55;;;0.80;99.90;;;;;;4962031;28;20150;-75
2023/12/07 08:27:32;;;;;;;10.93;4.07;;;0.80;99.90;;;;;;4953421;28;20098;-73
2023/12/07 08:29:59;;;;;;;5.63;3.03;;;0.90;99.90;;;;;;4961607;28;20527;-72
2023/12/07 08:32:28;;;;;;;5.30;2.90;;;1.00;99.90;;;;;;4954485;28;20407;-73
2023/12/07 08:34:54;;;;;;;8.05;3.60;;;1.00;99.90;;;;;;4961181;28;20030;-72
2023/12/07 08:37:20;;;;;;;4.30;3.13;;;1.00;99.90;;;;;;4955143;28;20046;-73
2023/12/07 08:39:46;;;;;;;7.07;4.50;;;1.10;99.90;;;;;;4965679;28;20034;-75
2023/12/07 08:42:12;;;;;;;2.35;2.15;;;1.10;99.90;;;;;;4974487;28;20022;-76
2023/12/07 08:44:38;;;;;;;5.57;3.00;;;1.20;99.90;;;;;;4959056;28;20066;-74
2023/12/07 08:47:05;;;;;;;5.10;4.65;;;1.20;99.90;;;;;;4958951;28;20042;-74
2023/12/07 08:49:31;;;;;;;5.32;4.45;;;1.20;99.90;;;;;;4956735;28;20058;-74
2023/12/07 08:51:57;;;;;;;6.43;4.45;;;1.20;99.90;;;;;;4958076;28;20070;-72
2023/12/07 08:54:23;;;;;;;6.43;5.00;;;1.30;99.90;;;;;;4958432;28;20031;-74
2023/12/07 08:56:49;;;;;;;5.22;4.72;;;1.30;99.90;;;;;;4959999;28;20117;-71
2023/12/07 08:59:14;;;;;;;3.30;3.00;;;1.40;99.90;;;;;;4964343;28;20045;-74
2023/12/07 09:01:40;;;;;;;6.80;4.00;;;1.40;99.90;;;;;;4956040;28;20031;-74
2023/12/07 09:04:06;;;;;;;4.03;3.53;;;1.50;99.90;;;;;;4968826;28;20081;-74
2023/12/07 09:06:32;;;;;;;5.80;3.38;;;1.60;99.90;;;;;;4962062;28;20031;-72
2023/12/07 09:08:58;;;;;;;5.30;2.67;;;1.60;99.90;;;;;;4955084;28;20034;-72
2023/12/07 09:11:24;;;;;;;3.67;2.33;;;1.70;99.90;;;;;;4974839;28;20026;-72
2023/12/07 09:13:50;;;;;;;13.82;4.70;;;1.60;99.90;;;;;;4968303;28;20154;-73
2023/12/07 09:16:16;;;;;;;12.63;2.85;;;1.60;99.90;;;;;;4956472;28;20035;-72
2023/12/07 09:18:46;;;;;;;3.67;3.38;;;1.70;99.90;;;;;;4953414;28;20086;-72
2023/12/07 09:21:11;;;;;;;12.35;2.78;;;1.70;99.90;;;;;;4961326;28;20039;-72
2023/12/07 09:23:38;;;;;;;3.55;2.63;;;1.80;99.90;;;;;;4962097;28;20089;-73
2023/12/07 09:26:04;;;;;;;7.38;4.45;;;1.70;99.90;;;;;;4969901;28;20059;-73
2023/12/07 09:28:33;;;;;;;5.95;3.80;;;1.70;99.90;;;;;;4969901;28;20167;-73
2023/12/07 09:30:59;;;;;;;7.30;3.42;;;1.70;99.90;;;;;;4973605;28;20069;-73
2023/12/07 09:33:25;;;;;;;4.15;3.67;;;1.90;99.90;;;;;;4958054;28;20035;-73
2023/12/07 09:35:51;;;;;;;4.78;3.13;;;2.00;99.90;;;;;;4983459;28;20038;-73
2023/12/07 09:38:17;;;;;;;5.72;3.80;;;2.00;99.90;;;;;;4954059;28;20031;-73
2023/12/07 09:40:44;;;;;;;5.43;3.30;;;2.00;99.90;;;;;;4969761;28;20122;-73
2023/12/07 09:43:10;;;;;;;7.82;4.13;;;1.90;99.90;;;;;;4963662;28;20035;-73
2023/12/07 09:45:35;;;;;;;7.18;2.67;;;2.00;99.90;;;;;;4961986;28;20031;-73
2023/12/07 09:48:02;;;;;;;3.85;2.83;;;2.10;99.90;;;;;;4966684;28;20439;-73
2023/12/07 09:50:28;;;;;;;6.47;2.67;;;2.10;99.90;;;;;;4956987;28;20110;-73
2023/12/07 09:52:56;;;;;;;1.95;1.25;;;2.20;99.90;;;;;;4956950;28;20544;-74
2023/12/07 09:55:24;;;;;;;2.92;2.55;;;2.30;99.90;;;;;;4961286;28;20049;-73
2023/12/07 09:57:50;;;;;;;11.45;4.20;;;2.20;99.90;;;;;;4951990;28;20058;-72
2023/12/07 10:00:17;;;;;;;6.55;3.78;;;2.20;99.90;;;;;;4961276;28;20066;-72
2023/12/07 10:02:46;;;;;;;4.15;2.22;;;2.20;99.90;;;;;;4953662;28;20046;-72
2023/12/07 10:05:16;;;;;;;6.05;2.20;;;2.20;99.90;;;;;;4962049;28;20034;-72
2023/12/07 10:07:48;;;;;;;3.65;2.88;;;2.40;99.90;;;;;;4959956;28;20035;-73
2023/12/07 10:10:16;;;;;;;11.60;4.55;;;2.50;99.90;;;;;;4968487;28;20039;-70
2023/12/07 10:12:57;;;;;;;2.30;1.85;;;2.80;99.90;;;;;;4967717;28;20034;-72
2023/12/07 10:15:24;;;;;;;9.97;4.23;;;3.50;99.90;;;;;;4969137;28;20049;-73
2023/12/07 10:17:59;;;;;;;7.65;2.83;;;5.10;99.90;;;;;;4963098;28;20322;-73
2023/12/07 10:20:29;;;;;;;3.97;3.35;;;5.50;99.90;;;;;;4960874;28;20122;-73
2023/12/07 10:23:07;;;;;;;7.40;4.38;;;6.20;99.90;;;;;;4938595;29;20042;-75
2023/12/07 10:25:41;;;;;;;5.65;3.13;;;7.70;99.90;;;;;;4960244;28;20035;-74
2023/12/07 10:28:10;;;;;;;8.75;4.95;;;7.20;99.90;;;;;;4955584;28;20118;-73
2023/12/07 10:30:37;;;;;;;13.40;5.93;;;9.70;99.90;;;;;;4961523;28;20027;-72
2023/12/07 10:33:07;;;;;;;9.48;4.93;;;11.30;99.90;;;;;;4949604;28;20113;-71
2023/12/07 10:35:33;;;;;;;13.35;4.47;;;11.80;99.90;;;;;;4977699;28;20035;-75
2023/12/07 10:37:59;;;;;;;7.90;4.97;;;11.20;99.90;;;;;;4957636;28;20035;-73
2023/12/07 10:40:25;;;;;;;5.13;3.45;;;8.80;99.90;;;;;;4961896;28;20066;-70
2023/12/07 10:42:56;;;;;;;13.05;4.05;;;8.10;99.90;;;;;;4970145;28;20067;-74
2023/12/07 10:45:24;;;;;;;9.98;4.03;;;10.40;99.90;;;;;;4961295;28;20484;-73
2023/12/07 10:47:53;;;;;;;8.23;3.97;;;10.10;99.90;;;;;;4964536;28;20384;-73
2023/12/07 10:50:23;;;;;;;11.43;4.55;;;9.90;99.90;;;;;;4974259;28;20031;-74
2023/12/07 10:52:54;;;;;;;10.00;4.93;;;9.10;99.90;;;;;;4968246;28;20067;-71
2023/12/07 10:55:30;;;;;;;8.85;3.83;;;9.20;99.90;;;;;;4970735;28;20051;-70
2023/12/07 10:57:59;;;;;;;8.40;3.45;;;8.50;99.90;;;;;;4938816;29;20039;-71
2023/12/07 11:00:27;;;;;;;11.25;3.65;;;7.60;99.90;;;;;;4961384;28;20037;-72
2023/12/07 11:02:58;;;;;;;7.55;3.90;;;8.40;99.90;;;;;;4973083;28;20027;-72
2023/12/07 11:05:25;;;;;;;3.27;2.63;;;8.00;99.90;;;;;;4973144;28;20030;-72
2023/12/07 11:08:02;;;;;;;7.82;4.78;;;7.40;99.90;;;;;;4964169;28;20369;-72
2023/12/07 11:10:41;;;;;;;6.60;4.47;;;7.90;99.90;;;;;;4971429;28;20035;-70
2023/12/07 11:13:31;;;;;;;5.47;3.60;;;8.30;99.90;;;;;;4963524;28;20042;-70
2023/12/07 11:15:57;;;;;;;7.17;6.10;;;7.20;99.90;;;;;;4964708;28;20164;-72
2023/12/07 11:18:26;;;;;;;10.40;5.85;;;6.70;99.90;;;;;;4954969;28;20046;-71
2023/12/07 11:20:54;;;;;;;3.47;2.60;;;6.20;99.90;;;;;;4965649;28;20043;-70
2023/12/07 11:23:20;;;;;;;3.47;2.70;;;6.90;99.90;;;;;;4956663;28;20130;-70
2023/12/07 11:25:48;;;;;;;4.10;3.22;;;6.40;99.90;;;;;;4959122;28;20031;-70
2023/12/07 11:28:15;;;;;;;6.25;4.30;;;7.20;99.90;;;;;;4977136;28;20041;-72
2023/12/07 11:30:46;;;;;;;7.97;4.47;;;8.30;99.90;;;;;;4960184;28;20039;-72
2023/12/07 11:33:14;;;;;;;6.90;4.13;;;9.00;99.90;;;;;;4962631;28;20027;-72
2023/12/07 11:36:10;;;;;;;9.23;4.97;;;7.60;99.90;;;;;;4974912;28;20133;-72
2023/12/07 11:38:37;;;;;;;8.68;4.03;;;7.40;99.90;;;;;;4960146;28;20199;-72
2023/12/07 11:41:04;;;;;;;6.43;3.40;;;7.80;99.90;;;;;;4985776;28;20518;-72
2023/12/07 11:43:32;;;;;;;6.32;3.60;;;7.00;99.90;;;;;;4955761;28;20039;-72
2023/12/07 11:45:59;;;;;;;7.82;4.00;;;7.20;99.90;;;;;;4959150;28;20041;-72
2023/12/07 11:48:25;;;;;;;9.88;8.52;;;8.60;99.90;;;;;;4959634;28;20062;-72
2023/12/07 11:51:07;;;;;;;177.50;162.25;;;9.10;99.90;;;;;;4958649;28;20062;-69
2023/12/07 11:53:37;;;;;;;35.80;33.00;;;7.60;99.90;;;;;;4969316;28;20031;-70
2023/12/07 11:56:06;;;;;;;171.90;155.23;;;6.00;99.90;;;;;;4955575;28;20027;-70
2023/12/07 11:58:34;;;;;;;63.45;57.80;;;6.50;99.90;;;;;;4961564;28;20106;-70
2023/12/07 12:01:01;;;;;;;83.15;77.50;;;7.10;99.90;;;;;;4938428;29;20031;-70
2023/12/07 12:03:29;;;;;;;75.40;70.20;;;8.50;99.90;;;;;;4965301;28;20030;-70
2023/12/07 12:05:55;;;;;;;6.07;3.90;;;10.10;99.90;;;;;;4965290;28;20388;-71
2023/12/07 12:08:21;;;;;;;4.75;2.97;;;11.40;99.90;;;;;;4974240;28;20082;-75
2023/12/07 12:10:52;;;;;;;3.50;2.50;;;11.60;99.90;;;;;;4958730;28;20059;-77
2023/12/07 12:13:18;;;;;;;4.78;3.25;;;12.00;99.90;;;;;;4971015;28;20027;-75
2023/12/07 12:15:46;;;;;;;8.07;4.07;;;11.40;99.90;;;;;;4975174;28;20027;-74
2023/12/07 12:18:13;;;;;;;10.40;4.53;;;11.50;99.90;;;;;;4973969;28;20120;-73
2023/12/07 12:20:39;;;;;;;15.50;8.07;;;12.30;99.90;;;;;;4973548;28;20118;-72
2023/12/07 12:23:06;;;;;;;9.48;5.50;;;11.40;98.70;;;;;;4974263;28;20035;-71
2023/12/07 12:25:32;;;;;;;15.15;7.40;;;11.10;99.90;;;;;;4974170;28;20388;-73
2023/12/07 12:28:02;;;;;;;18.30;4.05;;;9.40;99.90;;;;;;4972353;28;20117;-72
2023/12/07 12:30:29;;;;;;;13.90;5.32;;;10.70;99.90;;;;;;4973485;28;20507;-73
2023/12/07 12:32:56;;;;;;;8.95;3.58;;;11.10;99.90;;;;;;4977489;28;20439;-73
2023/12/07 12:35:22;;;;;;;8.05;4.95;;;10.40;99.90;;;;;;4973509;28;20034;-73
2023/12/07 12:37:49;;;;;;;11.00;5.45;;;10.10;99.90;;;;;;4972585;28;20045;-72
2023/12/07 12:40:20;;;;;;;9.18;4.47;;;10.60;99.90;;;;;;4970868;28;20038;-72
2023/12/07 12:42:52;;;;;;;6.57;3.92;;;10.10;99.90;;;;;;4978835;28;20383;-72
2023/12/07 12:45:19;;;;;;;8.02;4.68;;;10.40;99.90;;;;;;4962882;28;20560;-73
2023/12/07 12:47:47;;;;;;;8.85;4.05;;;10.70;99.90;;;;;;4973030;28;20035;-72
2023/12/07 12:50:36;;;;;;;10.57;5.70;;;11.10;99.90;;;;;;4970458;28;20553;-72
2023/12/07 12:53:08;;;;;;;7.22;4.03;;;10.90;99.90;;;;;;4961231;28;20058;-74
2023/12/07 12:55:40;;;;;;;7.95;4.18;;;11.30;99.90;;;;;;4973203;28;20485;-74